Time;durP1;ratioP1;P1;durP2;ratioP2;P2;SDS_P1;SDS_P2;PMS_P1;PMS_P2;Temp;Humidity;BMP_temperature;BMP_pressure;BME280_temperature;BME280_humidity;BME280_pressure;Samples;Min_cycle;Max_cycle;Signal;HPM_P1;HPM_P2
2024/03/19 00:00:14;;;;;;;34.05;14.23;;;7.20;99.90;;;;;;5038305;28;20025;-55
2024/03/19 00:02:40;;;;;;;27.40;12.77;;;7.10;99.90;;;;;;5035820;28;20033;-53
2024/03/19 00:05:06;;;;;;;24.40;12.48;;;7.10;99.90;;;;;;5034468;28;20018;-57
2024/03/19 00:07:32;;;;;;;30.65;12.10;;;7.10;99.90;;;;;;5034951;28;20057;-54
2024/03/19 00:09:57;;;;;;;26.48;11.43;;;7.10;99.90;;;;;;5045761;28;20419;-50
2024/03/19 00:12:24;;;;;;;30.10;11.93;;;7.10;99.90;;;;;;5046200;28;20116;-52
2024/03/19 00:14:50;;;;;;;27.02;11.77;;;7.10;99.90;;;;;;5034111;28;20051;-51
2024/03/19 00:17:16;;;;;;;30.77;13.10;;;7.10;99.90;;;;;;5036888;28;20022;-53
2024/03/19 00:19:42;;;;;;;32.00;11.77;;;7.10;99.90;;;;;;5036546;28;20040;-50
2024/03/19 00:22:08;;;;;;;30.17;12.63;;;7.00;99.90;;;;;;5042803;28;20563;-54
2024/03/19 00:24:33;;;;;;;25.98;12.93;;;6.90;99.90;;;;;;5042890;28;20037;-53
2024/03/19 00:26:59;;;;;;;29.40;12.27;;;6.90;99.90;;;;;;5042717;28;20053;-52
2024/03/19 00:29:26;;;;;;;34.72;12.15;;;6.80;99.90;;;;;;5037278;28;20033;-52
2024/03/19 00:31:52;;;;;;;27.88;11.90;;;6.80;99.90;;;;;;5035209;28;20029;-55
2024/03/19 00:34:17;;;;;;;32.10;13.45;;;6.70;99.90;;;;;;5051316;28;20025;-50
2024/03/19 00:36:44;;;;;;;25.10;12.32;;;6.70;99.90;;;;;;5049765;28;20522;-53
2024/03/19 00:39:10;;;;;;;27.00;11.77;;;6.60;99.90;;;;;;5051000;28;20039;-51
2024/03/19 00:41:36;;;;;;;29.90;12.48;;;6.60;99.90;;;;;;5035794;28;20045;-54
2024/03/19 00:44:04;;;;;;;28.42;13.00;;;6.60;99.90;;;;;;5035065;28;20062;-51
2024/03/19 00:46:33;;;;;;;36.40;14.10;;;6.60;99.90;;;;;;5036329;28;20368;-53
2024/03/19 00:48:59;;;;;;;27.42;12.05;;;6.60;99.90;;;;;;5036171;28;20030;-52
2024/03/19 00:51:25;;;;;;;42.17;13.63;;;6.60;99.90;;;;;;5041414;28;20021;-49
2024/03/19 00:53:50;;;;;;;30.42;13.05;;;6.80;99.90;;;;;;5045039;28;20071;-51
2024/03/19 00:56:17;;;;;;;33.17;12.98;;;6.80;99.90;;;;;;5050671;28;20064;-53
2024/03/19 00:58:42;;;;;;;32.03;14.07;;;6.90;99.90;;;;;;5042418;28;20032;-51
2024/03/19 01:01:08;;;;;;;30.70;11.82;;;7.00;99.90;;;;;;5034757;28;20029;-55
2024/03/19 01:03:34;;;;;;;29.80;13.25;;;7.00;99.90;;;;;;5035138;28;20036;-54
2024/03/19 01:06:00;;;;;;;32.35;13.93;;;7.00;99.90;;;;;;5038653;28;20029;-54
2024/03/19 01:08:26;;;;;;;30.80;12.77;;;7.10;99.90;;;;;;5040913;28;20055;-55
2024/03/19 01:10:51;;;;;;;31.90;13.75;;;7.20;99.90;;;;;;5036137;28;20112;-52
2024/03/19 01:13:17;;;;;;;29.48;12.70;;;7.20;99.90;;;;;;5039411;28;20479;-52
2024/03/19 01:15:42;;;;;;;30.15;12.52;;;7.20;99.90;;;;;;5038717;28;20649;-56
2024/03/19 01:18:08;;;;;;;25.00;11.57;;;7.20;99.90;;;;;;5035981;28;20398;-50
2024/03/19 01:20:34;;;;;;;31.30;12.82;;;7.30;99.90;;;;;;5040184;28;20030;-53
2024/03/19 01:22:59;;;;;;;26.58;11.75;;;7.30;99.90;;;;;;5044685;28;20108;-51
2024/03/19 01:25:25;;;;;;;26.35;11.68;;;7.40;99.90;;;;;;5034291;28;20079;-55
2024/03/19 01:27:53;;;;;;;28.30;12.15;;;7.40;99.90;;;;;;5036779;28;20025;-57
2024/03/19 01:30:19;;;;;;;26.98;12.52;;;7.40;99.90;;;;;;5046788;28;20051;-52
2024/03/19 01:32:45;;;;;;;27.40;10.93;;;7.40;99.90;;;;;;5051348;28;20032;-55
2024/03/19 01:35:10;;;;;;;31.17;13.05;;;7.30;99.90;;;;;;5045706;28;20018;-54
2024/03/19 01:37:36;;;;;;;30.13;12.80;;;7.30;99.90;;;;;;5037481;28;20036;-57
2024/03/19 01:40:03;;;;;;;23.83;11.20;;;7.30;99.90;;;;;;5040052;28;20502;-55
2024/03/19 01:42:29;;;;;;;23.75;11.85;;;7.40;99.90;;;;;;5038462;28;20028;-56
2024/03/19 01:45:15;;;;;;;30.80;12.52;;;7.40;99.90;;;;;;5044852;28;20026;-55
2024/03/19 01:47:44;;;;;;;30.17;12.77;;;7.40;99.90;;;;;;5033083;28;20044;-53
2024/03/19 01:50:11;;;;;;;25.52;11.52;;;7.40;99.90;;;;;;5033199;28;20095;-55
2024/03/19 01:52:41;;;;;;;25.13;12.73;;;7.40;99.90;;;;;;5040055;28;20484;-53
2024/03/19 01:55:07;;;;;;;35.72;12.38;;;7.40;99.90;;;;;;5032421;28;20100;-55
2024/03/19 01:57:34;;;;;;;21.38;11.55;;;7.50;99.90;;;;;;5039855;28;20412;-53
2024/03/19 01:59:59;;;;;;;23.80;10.40;;;7.50;99.90;;;;;;5050861;28;20111;-54
2024/03/19 02:02:34;;;;;;;25.45;11.68;;;7.40;99.90;;;;;;5047221;28;20112;-52
2024/03/19 02:05:00;;;;;;;23.92;12.38;;;7.40;99.90;;;;;;5050230;28;20082;-56
2024/03/19 02:07:26;;;;;;;26.95;11.93;;;7.40;99.90;;;;;;5049056;28;20041;-53
2024/03/19 02:09:54;;;;;;;25.95;11.23;;;7.40;99.90;;;;;;5046636;28;20032;-54
2024/03/19 02:12:24;;;;;;;28.45;11.55;;;7.40;99.90;;;;;;5036069;28;20101;-52
2024/03/19 02:14:50;;;;;;;21.58;11.43;;;7.40;99.90;;;;;;5032269;28;20106;-55
2024/03/19 02:17:16;;;;;;;26.63;11.23;;;7.40;99.90;;;;;;5032151;28;20537;-56
2024/03/19 02:19:43;;;;;;;20.13;10.20;;;7.30;99.90;;;;;;5041824;28;20025;-55
2024/03/19 02:22:09;;;;;;;20.73;9.52;;;7.30;99.90;;;;;;5045354;28;20079;-53
2024/03/19 02:24:36;;;;;;;26.85;10.88;;;7.20;99.90;;;;;;5038722;28;20037;-56
2024/03/19 02:27:02;;;;;;;26.95;11.68;;;7.20;99.90;;;;;;5035594;28;20075;-54
2024/03/19 02:29:28;;;;;;;28.42;10.27;;;7.10;99.90;;;;;;5034710;28;20022;-50
2024/03/19 02:31:53;;;;;;;23.20;10.75;;;7.00;99.90;;;;;;5038389;28;20040;-51
2024/03/19 02:34:19;;;;;;;25.35;12.45;;;7.00;99.90;;;;;;5035293;28;20088;-52
2024/03/19 02:36:45;;;;;;;27.02;12.27;;;6.80;99.90;;;;;;5040252;28;20037;-51
2024/03/19 02:39:12;;;;;;;29.17;12.55;;;6.80;99.90;;;;;;5037342;28;20040;-54
2024/03/19 02:41:38;;;;;;;27.45;12.50;;;6.70;99.90;;;;;;5035128;28;20025;-55
2024/03/19 02:44:04;;;;;;;29.02;11.52;;;6.60;99.90;;;;;;5041802;28;20064;-49
2024/03/19 02:46:30;;;;;;;27.80;12.23;;;6.60;99.90;;;;;;5031478;28;20489;-52
2024/03/19 02:48:55;;;;;;;26.60;12.35;;;6.50;99.90;;;;;;5032056;28;20030;-56
2024/03/19 02:51:21;;;;;;;32.08;13.07;;;6.40;99.90;;;;;;5031585;28;20029;-52
2024/03/19 02:53:46;;;;;;;29.02;12.00;;;6.40;99.90;;;;;;5041255;28;20024;-52
2024/03/19 02:56:12;;;;;;;29.13;12.10;;;6.40;99.90;;;;;;5031276;28;20511;-53
2024/03/19 02:58:38;;;;;;;28.98;13.60;;;6.40;99.90;;;;;;5047693;28;20495;-51
2024/03/19 03:01:03;;;;;;;25.25;11.68;;;6.30;99.90;;;;;;5043493;28;20395;-54
2024/03/19 03:03:29;;;;;;;26.17;11.52;;;6.30;99.90;;;;;;5065676;22;20045;-53
2024/03/19 03:05:55;;;;;;;27.85;11.18;;;6.30;99.90;;;;;;5052837;28;20037;-52
2024/03/19 03:08:20;;;;;;;27.92;10.95;;;6.30;99.90;;;;;;5050164;28;20049;-52
2024/03/19 03:10:46;;;;;;;28.25;11.35;;;6.30;99.90;;;;;;5048161;28;20055;-49
2024/03/19 03:13:12;;;;;;;28.70;11.75;;;6.30;99.90;;;;;;5050117;28;20412;-50
2024/03/19 03:15:37;;;;;;;30.15;12.40;;;6.40;99.90;;;;;;5047590;28;20025;-52
2024/03/19 03:18:03;;;;;;;29.35;12.15;;;6.40;99.90;;;;;;5049625;28;20530;-53
2024/03/19 03:20:29;;;;;;;31.08;12.90;;;6.40;99.90;;;;;;5047477;28;20390;-50
2024/03/19 03:22:58;;;;;;;27.73;12.35;;;6.40;99.90;;;;;;5043880;28;20021;-51
2024/03/19 03:25:23;;;;;;;26.77;11.70;;;6.50;99.90;;;;;;5049325;28;20125;-50
2024/03/19 03:27:50;;;;;;;29.88;12.82;;;6.40;99.90;;;;;;5044423;28;20487;-52
2024/03/19 03:30:16;;;;;;;35.42;12.52;;;6.50;99.90;;;;;;5050462;28;20025;-49
2024/03/19 03:32:45;;;;;;;32.05;12.95;;;6.50;99.90;;;;;;5046102;28;20044;-52
2024/03/19 03:35:11;;;;;;;26.55;11.57;;;6.50;99.90;;;;;;5040121;28;20163;-54
2024/03/19 03:37:37;;;;;;;35.08;12.23;;;6.50;99.90;;;;;;5046988;28;20500;-49
2024/03/19 03:40:37;;;;;;;30.05;11.18;;;6.50;99.90;;;;;;5049447;28;20134;-50
2024/03/19 03:42:55;;;;;;;27.23;12.90;;;6.60;99.90;;;;;;5043256;28;20401;-51
2024/03/19 03:45:21;;;;;;;28.73;12.75;;;6.70;99.90;;;;;;5043331;28;20025;-53
2024/03/19 03:47:48;;;;;;;28.92;12.50;;;6.70;99.90;;;;;;5046837;28;20029;-51
2024/03/19 03:50:14;;;;;;;29.63;11.07;;;6.80;99.90;;;;;;5048618;28;20029;-53
2024/03/19 03:52:40;;;;;;;34.05;12.73;;;6.80;99.90;;;;;;5046951;28;20094;-51
2024/03/19 03:55:07;;;;;;;31.92;13.10;;;6.80;99.90;;;;;;5050341;28;20471;-53
2024/03/19 03:57:33;;;;;;;24.85;11.10;;;6.90;99.90;;;;;;5049063;28;20029;-51
2024/03/19 04:00:00;;;;;;;31.80;11.50;;;6.90;99.90;;;;;;5049395;28;20028;-50
2024/03/19 04:02:25;;;;;;;26.65;11.20;;;6.90;99.90;;;;;;5046120;28;20421;-50
2024/03/19 04:04:54;;;;;;;29.48;11.80;;;6.90;99.90;;;;;;5045146;28;20131;-52
2024/03/19 04:07:20;;;;;;;28.77;12.32;;;6.90;99.90;;;;;;5050114;28;20535;-52
2024/03/19 04:09:45;;;;;;;27.67;12.48;;;6.90;99.90;;;;;;5049143;28;20052;-50
2024/03/19 04:12:11;;;;;;;26.40;11.43;;;6.90;99.90;;;;;;5049470;28;20013;-49
2024/03/19 04:14:37;;;;;;;24.73;11.98;;;7.00;99.90;;;;;;5049420;28;20379;-49
2024/03/19 04:17:02;;;;;;;29.63;12.18;;;7.00;99.90;;;;;;5040655;28;20047;-54
2024/03/19 04:19:28;;;;;;;28.55;11.25;;;7.00;99.90;;;;;;5048914;28;20040;-49
2024/03/19 04:21:53;;;;;;;29.00;13.18;;;7.00;99.90;;;;;;5045171;28;20025;-53
2024/03/19 04:24:19;;;;;;;30.83;12.38;;;7.00;99.90;;;;;;5049778;28;20033;-55
2024/03/19 04:26:44;;;;;;;31.05;11.00;;;7.00;99.90;;;;;;5041041;28;20383;-53
2024/03/19 04:29:15;;;;;;;25.50;9.88;;;7.10;99.90;;;;;;5050525;28;20029;-53
2024/03/19 04:31:44;;;;;;;22.85;12.65;;;7.10;99.90;;;;;;5043876;28;20032;-54
2024/03/19 04:34:10;;;;;;;27.65;10.95;;;7.10;99.90;;;;;;5048780;28;20029;-51
2024/03/19 04:36:35;;;;;;;27.00;12.00;;;7.10;99.90;;;;;;5051262;28;20036;-52
2024/03/19 04:39:10;;;;;;;27.17;10.38;;;7.10;99.90;;;;;;5054003;28;20455;-53
2024/03/19 04:41:39;;;;;;;23.80;10.82;;;7.10;99.90;;;;;;5053729;28;20033;-54
2024/03/19 04:44:05;;;;;;;22.63;9.30;;;7.10;99.90;;;;;;5054369;28;20091;-51
2024/03/19 04:46:31;;;;;;;30.45;11.77;;;7.10;99.90;;;;;;5052500;28;20041;-49
2024/03/19 04:48:57;;;;;;;22.73;10.65;;;7.10;99.90;;;;;;5052405;28;20040;-49
2024/03/19 04:51:23;;;;;;;26.67;10.98;;;7.10;99.90;;;;;;5052461;28;20029;-51
2024/03/19 04:53:49;;;;;;;26.75;10.73;;;7.10;99.90;;;;;;5050814;28;20021;-50
2024/03/19 04:56:14;;;;;;;25.83;11.73;;;7.10;99.90;;;;;;5049830;28;20095;-50
2024/03/19 04:58:40;;;;;;;26.38;9.77;;;7.10;99.90;;;;;;5049782;28;20120;-49
2024/03/19 05:01:05;;;;;;;30.13;11.13;;;7.10;99.90;;;;;;5048863;28;20029;-50
2024/03/19 05:03:31;;;;;;;22.70;11.55;;;7.10;99.90;;;;;;5051641;28;20040;-50
2024/03/19 05:05:57;;;;;;;22.58;11.40;;;7.10;99.90;;;;;;5047411;28;20032;-52
2024/03/19 05:08:23;;;;;;;31.20;11.48;;;7.20;99.90;;;;;;5051189;28;20030;-50
2024/03/19 05:10:49;;;;;;;25.88;12.68;;;7.20;99.90;;;;;;5048819;28;20028;-50
2024/03/19 05:13:15;;;;;;;22.55;10.88;;;7.20;99.90;;;;;;5052836;28;20032;-50
2024/03/19 05:15:40;;;;;;;24.92;12.43;;;7.10;99.90;;;;;;5046317;28;20143;-49
2024/03/19 05:18:07;;;;;;;22.85;10.85;;;7.10;99.90;;;;;;5043202;28;20041;-55
2024/03/19 05:20:34;;;;;;;24.45;10.93;;;7.10;99.90;;;;;;5046570;28;20033;-50
2024/03/19 05:23:00;;;;;;;23.40;10.75;;;7.00;99.90;;;;;;5049448;28;20510;-54
2024/03/19 05:25:25;;;;;;;24.88;10.75;;;6.90;99.90;;;;;;5050786;28;20048;-53
2024/03/19 05:27:51;;;;;;;22.70;11.07;;;6.90;99.90;;;;;;5044068;28;20033;-51
2024/03/19 05:30:18;;;;;;;28.27;10.68;;;6.90;99.90;;;;;;5044087;28;20021;-53
2024/03/19 05:32:44;;;;;;;25.42;11.40;;;7.00;99.90;;;;;;5047828;28;20033;-54
2024/03/19 05:35:10;;;;;;;31.77;11.68;;;7.00;99.90;;;;;;5041409;28;20386;-53
2024/03/19 05:37:35;;;;;;;24.33;11.07;;;7.00;99.90;;;;;;5046502;28;20033;-51
2024/03/19 05:40:01;;;;;;;39.72;13.02;;;7.10;99.90;;;;;;5046332;28;20056;-50
2024/03/19 05:42:27;;;;;;;28.63;11.52;;;7.20;99.90;;;;;;5049795;28;20025;-50
2024/03/19 05:44:55;;;;;;;20.48;10.77;;;7.20;99.90;;;;;;5042925;28;20450;-51
2024/03/19 05:47:20;;;;;;;23.20;10.50;;;7.10;99.90;;;;;;5051619;28;20029;-53
2024/03/19 05:49:46;;;;;;;24.52;11.43;;;7.10;99.90;;;;;;5048762;28;20029;-51
2024/03/19 05:52:12;;;;;;;20.92;11.13;;;7.10;99.90;;;;;;5042894;28;20029;-51
2024/03/19 05:54:37;;;;;;;25.30;11.13;;;7.10;99.90;;;;;;5051516;28;20025;-53
2024/03/19 05:57:03;;;;;;;26.17;10.57;;;7.10;99.90;;;;;;5048128;28;20028;-51
2024/03/19 05:59:29;;;;;;;22.60;11.48;;;7.10;99.90;;;;;;5050296;28;20029;-54
2024/03/19 06:01:55;;;;;;;23.52;11.20;;;7.10;99.90;;;;;;5052098;28;20029;-54
2024/03/19 06:04:20;;;;;;;26.35;10.15;;;7.20;99.90;;;;;;5052076;28;20032;-51
2024/03/19 06:06:46;;;;;;;25.38;11.57;;;7.20;99.90;;;;;;5051451;28;20056;-52
2024/03/19 06:09:12;;;;;;;22.63;10.95;;;7.20;99.90;;;;;;5051613;28;20090;-52
2024/03/19 06:11:37;;;;;;;27.02;10.35;;;7.30;99.90;;;;;;5044983;28;20163;-55
2024/03/19 06:14:03;;;;;;;29.80;10.25;;;7.40;99.90;;;;;;5049305;28;20040;-53
2024/03/19 06:16:28;;;;;;;24.05;11.35;;;7.40;99.90;;;;;;5051156;28;20029;-53
2024/03/19 06:18:54;;;;;;;23.10;10.02;;;7.40;99.90;;;;;;5051430;28;20421;-55
2024/03/19 06:21:21;;;;;;;24.77;10.73;;;7.40;99.90;;;;;;5051650;28;20017;-52
2024/03/19 06:23:46;;;;;;;19.10;10.43;;;7.40;99.90;;;;;;5050335;28;20035;-51
2024/03/19 06:26:13;;;;;;;24.20;10.50;;;7.30;99.90;;;;;;5051126;28;20025;-52
2024/03/19 06:28:38;;;;;;;21.35;10.88;;;7.30;99.90;;;;;;5051034;28;20045;-51
2024/03/19 06:31:04;;;;;;;22.02;10.38;;;7.40;99.90;;;;;;5044320;28;20021;-52
2024/03/19 06:33:29;;;;;;;23.00;9.90;;;7.50;99.90;;;;;;5050140;28;20025;-53
2024/03/19 06:35:55;;;;;;;24.25;10.35;;;7.50;99.90;;;;;;5046813;28;20035;-53
2024/03/19 06:38:21;;;;;;;22.33;9.25;;;7.50;99.90;;;;;;5049669;28;20029;-54
2024/03/19 06:40:47;;;;;;;22.92;9.88;;;7.60;99.90;;;;;;5049664;28;20047;-52
2024/03/19 06:43:12;;;;;;;24.88;10.10;;;7.70;99.90;;;;;;5051114;28;20659;-50
2024/03/19 06:45:38;;;;;;;23.92;10.00;;;7.90;99.90;;;;;;5050925;28;20121;-54
2024/03/19 06:48:04;;;;;;;19.27;9.90;;;7.90;99.90;;;;;;5050813;28;20386;-54
2024/03/19 06:50:31;;;;;;;21.90;10.07;;;8.00;99.90;;;;;;5046523;28;20395;-54
2024/03/19 06:52:57;;;;;;;20.88;10.15;;;8.10;99.90;;;;;;5044878;28;20563;-50
2024/03/19 06:55:22;;;;;;;22.85;9.55;;;8.10;99.90;;;;;;5049279;28;20095;-52
2024/03/19 06:57:49;;;;;;;20.98;9.88;;;8.10;99.90;;;;;;5047401;28;20052;-54
2024/03/19 07:00:22;;;;;;;19.35;9.60;;;8.20;99.90;;;;;;5045557;28;20513;-53
2024/03/19 07:02:47;;;;;;;20.75;9.32;;;8.30;99.90;;;;;;5045443;28;20060;-53
2024/03/19 07:05:13;;;;;;;16.25;9.50;;;8.50;99.90;;;;;;5048000;28;20084;-54
2024/03/19 07:07:39;;;;;;;21.27;10.00;;;8.50;99.90;;;;;;5043140;28;20079;-53
2024/03/19 07:10:05;;;;;;;14.77;8.27;;;8.50;99.90;;;;;;5041017;28;20028;-54
2024/03/19 07:12:31;;;;;;;15.95;8.90;;;8.60;99.90;;;;;;5048789;28;20029;-50
2024/03/19 07:15:00;;;;;;;21.58;10.27;;;8.70;99.90;;;;;;5049207;28;20032;-51
2024/03/19 07:17:26;;;;;;;19.13;9.13;;;8.80;99.90;;;;;;5044227;28;20052;-53
2024/03/19 07:19:53;;;;;;;19.73;10.68;;;8.60;99.90;;;;;;5049306;28;20032;-53
2024/03/19 07:22:18;;;;;;;22.42;8.95;;;8.60;99.90;;;;;;5041946;28;20497;-51
2024/03/19 07:24:44;;;;;;;19.98;9.02;;;8.60;99.90;;;;;;5047672;28;20032;-53
2024/03/19 07:27:10;;;;;;;19.17;9.18;;;8.90;99.90;;;;;;5043922;28;20024;-53
2024/03/19 07:29:36;;;;;;;18.73;8.93;;;9.10;99.90;;;;;;5046306;28;20055;-53
2024/03/19 07:32:02;;;;;;;16.52;8.68;;;9.40;99.90;;;;;;5045380;28;20041;-52
2024/03/19 07:34:27;;;;;;;15.35;8.38;;;9.50;99.90;;;;;;5048430;28;20482;-54
2024/03/19 07:36:53;;;;;;;21.65;9.23;;;9.70;99.90;;;;;;5044897;28;20560;-55
2024/03/19 07:39:18;;;;;;;18.13;7.68;;;9.90;99.90;;;;;;5050566;28;20037;-50
2024/03/19 07:41:44;;;;;;;21.55;9.20;;;9.90;99.90;;;;;;5047511;28;20029;-53
2024/03/19 07:44:10;;;;;;;18.63;9.05;;;10.00;99.90;;;;;;5048549;28;20036;-55
2024/03/19 07:46:35;;;;;;;19.60;8.63;;;10.20;99.90;;;;;;5048043;28;20088;-54
2024/03/19 07:49:01;;;;;;;16.23;8.35;;;10.10;99.90;;;;;;5050589;28;20032;-52
2024/03/19 07:51:28;;;;;;;16.92;7.72;;;10.30;99.90;;;;;;5047517;28;20040;-54
2024/03/19 07:53:54;;;;;;;16.58;7.85;;;10.40;99.90;;;;;;5048293;28;20029;-54
2024/03/19 07:56:20;;;;;;;15.13;7.18;;;10.60;99.90;;;;;;5047314;28;20029;-52
2024/03/19 07:58:47;;;;;;;15.98;7.63;;;11.00;99.90;;;;;;5047420;28;20036;-53
2024/03/19 08:01:13;;;;;;;16.13;8.18;;;11.00;99.90;;;;;;5048715;28;20049;-55
2024/03/19 08:03:39;;;;;;;17.85;8.52;;;11.30;99.90;;;;;;5048473;28;20068;-54
2024/03/19 08:06:04;;;;;;;16.75;8.73;;;11.50;99.90;;;;;;5049002;28;20025;-51
2024/03/19 08:08:30;;;;;;;13.70;8.63;;;11.50;99.90;;;;;;5051169;28;20092;-52
2024/03/19 08:10:56;;;;;;;16.77;8.52;;;11.50;99.90;;;;;;5052608;28;20087;-51
2024/03/19 08:13:22;;;;;;;21.33;9.20;;;11.70;99.90;;;;;;5042071;28;20068;-50
2024/03/19 08:15:48;;;;;;;18.05;8.25;;;11.60;99.90;;;;;;5045251;28;20075;-56
2024/03/19 08:18:13;;;;;;;15.85;8.05;;;11.60;99.90;;;;;;5040819;28;20419;-53
2024/03/19 08:20:39;;;;;;;23.48;8.02;;;11.70;99.90;;;;;;5041982;28;20123;-53
2024/03/19 08:23:05;;;;;;;17.50;7.72;;;12.10;99.90;;;;;;5052748;28;20051;-52
2024/03/19 08:25:31;;;;;;;15.82;8.20;;;12.10;99.90;;;;;;5050887;28;20029;-51
2024/03/19 08:27:57;;;;;;;16.63;8.13;;;12.30;99.90;;;;;;5049887;28;20057;-52
2024/03/19 08:30:23;;;;;;;13.57;8.63;;;12.10;99.90;;;;;;5042514;28;20110;-54
2024/03/19 08:32:49;;;;;;;17.00;7.80;;;12.20;99.90;;;;;;5043525;28;20447;-55
2024/03/19 08:35:16;;;;;;;16.30;8.10;;;12.10;99.90;;;;;;5045842;28;20035;-53
2024/03/19 08:37:43;;;;;;;20.70;8.85;;;12.20;99.90;;;;;;5051110;28;20021;-51
2024/03/19 08:40:09;;;;;;;20.88;8.50;;;12.10;99.90;;;;;;5053403;28;20041;-53
2024/03/19 08:42:35;;;;;;;15.43;8.15;;;12.10;99.90;;;;;;5046477;28;20029;-53
2024/03/19 08:45:03;;;;;;;16.17;8.82;;;12.00;99.90;;;;;;5051014;28;20037;-52
2024/03/19 08:47:29;;;;;;;15.55;8.40;;;11.90;99.90;;;;;;5043249;28;20033;-53
2024/03/19 08:49:55;;;;;;;19.02;8.50;;;11.90;99.90;;;;;;5043814;28;20021;-56
2024/03/19 08:52:21;;;;;;;16.77;8.95;;;12.20;99.90;;;;;;5046257;28;20048;-56
2024/03/19 08:54:50;;;;;;;16.08;8.52;;;12.40;99.90;;;;;;5053218;28;20056;-57
2024/03/19 08:57:16;;;;;;;20.00;9.77;;;12.60;99.90;;;;;;5045604;28;20478;-54
2024/03/19 08:59:41;;;;;;;23.77;8.20;;;12.70;99.90;;;;;;5047074;28;20036;-55
2024/03/19 09:02:08;;;;;;;13.73;7.22;;;12.80;99.90;;;;;;5041340;28;20055;-57
2024/03/19 09:04:34;;;;;;;14.77;8.25;;;12.80;99.90;;;;;;5050924;22;20030;-52
2024/03/19 09:07:00;;;;;;;13.88;7.65;;;12.80;99.90;;;;;;5027763;28;20056;-54
2024/03/19 09:09:26;;;;;;;14.60;7.70;;;12.90;99.90;;;;;;5025674;28;20486;-52
2024/03/19 09:11:51;;;;;;;15.68;7.28;;;13.20;99.90;;;;;;5031147;28;20033;-52
2024/03/19 09:14:17;;;;;;;14.50;6.57;;;13.10;99.90;;;;;;5028366;28;20022;-52
2024/03/19 09:16:43;;;;;;;15.63;7.22;;;13.30;99.90;;;;;;5013157;28;20189;-53
2024/03/19 09:19:09;;;;;;;14.90;7.38;;;13.50;99.90;;;;;;5024339;28;20101;-54
2024/03/19 09:21:34;;;;;;;17.40;8.27;;;13.70;99.90;;;;;;5022690;28;20042;-52
2024/03/19 09:24:00;;;;;;;14.13;7.53;;;13.70;99.90;;;;;;5029969;28;20065;-53
2024/03/19 09:26:26;;;;;;;15.77;8.15;;;13.90;99.90;;;;;;5025985;28;20026;-54
2024/03/19 09:28:52;;;;;;;16.27;6.05;;;13.90;99.90;;;;;;5028546;28;20026;-55
2024/03/19 09:31:17;;;;;;;15.13;6.97;;;14.00;99.90;;;;;;5028023;28;20028;-54
2024/03/19 09:33:43;;;;;;;12.88;6.40;;;14.10;99.90;;;;;;5032132;28;20017;-53
2024/03/19 09:36:09;;;;;;;11.52;6.38;;;14.50;99.90;;;;;;5026299;28;20509;-54
2024/03/19 09:38:34;;;;;;;13.70;7.00;;;14.80;99.90;;;;;;5028553;28;20297;-53
2024/03/19 09:41:05;;;;;;;13.18;6.47;;;15.00;99.90;;;;;;5024109;28;20060;-52
2024/03/19 09:43:36;;;;;;;10.57;5.68;;;15.60;99.90;;;;;;5027610;28;20033;-55
2024/03/19 09:46:03;;;;;;;11.80;4.88;;;16.50;99.90;;;;;;5025344;28;20029;-54
2024/03/19 09:48:30;;;;;;;7.47;4.65;;;16.80;99.90;;;;;;5030531;28;20403;-54
2024/03/19 09:50:57;;;;;;;9.63;4.43;;;17.10;99.90;;;;;;5026776;28;20025;-56
2024/03/19 09:53:26;;;;;;;13.52;5.50;;;17.90;99.90;;;;;;5024686;28;20657;-54
2024/03/19 09:55:52;;;;;;;8.88;4.97;;;17.80;99.90;;;;;;5022527;28;20100;-55
2024/03/19 09:58:23;;;;;;;9.50;4.40;;;18.30;99.90;;;;;;5025579;28;20021;-55
2024/03/19 10:00:51;;;;;;;8.07;4.55;;;18.60;99.70;;;;;;5030464;28;20049;-55
2024/03/19 10:03:17;;;;;;;6.88;4.32;;;18.60;99.40;;;;;;5030880;28;20029;-53
2024/03/19 10:05:43;;;;;;;9.68;4.07;;;18.40;98.50;;;;;;5028993;28;20128;-54
2024/03/19 10:08:13;;;;;;;11.18;4.95;;;18.40;99.60;;;;;;5021091;28;20394;-55
2024/03/19 10:10:39;;;;;;;9.75;4.65;;;18.10;99.60;;;;;;5029834;28;20047;-56
2024/03/19 10:13:06;;;;;;;8.48;3.60;;;17.80;99.90;;;;;;5035428;28;20487;-53
2024/03/19 10:15:32;;;;;;;7.03;3.85;;;18.10;99.90;;;;;;5011877;28;20663;-55
2024/03/19 10:17:58;;;;;;;13.52;3.92;;;18.20;99.90;;;;;;5035005;28;20124;-55
2024/03/19 10:20:28;;;;;;;11.18;3.78;;;18.40;99.20;;;;;;5028871;28;20403;-55
2024/03/19 10:22:54;;;;;;;6.32;3.53;;;18.30;99.40;;;;;;5022306;28;20073;-53
2024/03/19 10:25:19;;;;;;;7.93;3.83;;;18.40;99.40;;;;;;5023587;28;20417;-55
2024/03/19 10:27:46;;;;;;;6.10;3.33;;;18.30;98.30;;;;;;5021122;28;20056;-55
2024/03/19 10:30:14;;;;;;;9.00;4.32;;;18.00;99.90;;;;;;5024111;28;20050;-52
2024/03/19 10:32:49;;;;;;;5.25;3.20;;;18.50;99.60;;;;;;5020581;28;20399;-55
2024/03/19 10:35:20;;;;;;;7.38;3.33;;;19.00;98.60;;;;;;5031084;28;20029;-55
2024/03/19 10:37:48;;;;;;;6.20;3.45;;;19.20;99.50;;;;;;5025382;28;20037;-52
2024/03/19 10:40:15;;;;;;;6.45;2.90;;;19.50;98.50;;;;;;5029517;28;20029;-54
2024/03/19 10:42:42;;;;;;;5.75;2.72;;;19.30;97.10;;;;;;5024096;28;20063;-53
2024/03/19 10:45:17;;;;;;;8.50;2.97;;;19.50;96.80;;;;;;5022996;28;20173;-54
2024/03/19 10:47:47;;;;;;;6.82;2.70;;;19.40;96.70;;;;;;5020727;28;20407;-55
2024/03/19 10:50:15;;;;;;;6.00;2.13;;;19.30;97.70;;;;;;5020555;28;20111;-55
2024/03/19 10:53:06;;;;;;;5.85;2.00;;;19.00;96.90;;;;;;5027063;28;20037;-55
2024/03/19 10:55:34;;;;;;;7.00;2.15;;;18.80;97.50;;;;;;5030842;28;20013;-53
2024/03/19 10:58:01;;;;;;;9.00;2.40;;;18.90;96.30;;;;;;5025863;28;20030;-54
2024/03/19 11:00:28;;;;;;;6.40;1.85;;;18.90;96.80;;;;;;5028648;28;20402;-56
2024/03/19 11:03:02;;;;;;;8.13;2.60;;;18.80;97.20;;;;;;5026321;28;20049;-51
2024/03/19 11:05:27;;;;;;;6.13;3.60;;;18.80;97.30;;;;;;5021779;28;20164;-52
2024/03/19 11:07:56;;;;;;;6.80;2.28;;;18.50;96.10;;;;;;5023240;28;20551;-56
2024/03/19 11:10:25;;;;;;;3.67;1.92;;;18.40;97.80;;;;;;5026574;28;20029;-53
2024/03/19 11:13:06;;;;;;;7.50;2.45;;;18.20;97.10;;;;;;5024543;28;20537;-52
2024/03/19 11:15:33;;;;;;;9.95;2.22;;;18.30;96.90;;;;;;5026991;28;20030;-51
2024/03/19 11:18:18;;;;;;;5.20;2.25;;;18.40;96.80;;;;;;5025524;28;20037;-53
2024/03/19 11:20:51;;;;;;;4.50;1.98;;;18.30;96.40;;;;;;5021352;28;20033;-55
2024/03/19 11:23:27;;;;;;;5.70;1.30;;;18.10;96.20;;;;;;5019668;28;20121;-54
2024/03/19 11:25:54;;;;;;;5.88;1.83;;;18.00;96.70;;;;;;5030315;28;20112;-55
2024/03/19 11:28:24;;;;;;;3.17;1.75;;;18.00;96.30;;;;;;5024692;28;20101;-55
2024/03/19 11:31:01;;;;;;;4.43;1.85;;;18.10;96.50;;;;;;5030424;28;20026;-52
2024/03/19 11:33:27;;;;;;;2.95;1.17;;;18.10;97.40;;;;;;5024074;28;20399;-53
2024/03/19 11:35:56;;;;;;;5.35;1.30;;;18.10;95.20;;;;;;5019841;28;20022;-56
2024/03/19 11:38:23;;;;;;;3.95;1.25;;;17.90;94.90;;;;;;5029142;28;20025;-54
2024/03/19 11:40:48;;;;;;;3.03;1.25;;;17.80;94.00;;;;;;5021506;28;20061;-56
2024/03/19 11:43:16;;;;;;;5.88;2.53;;;17.60;94.10;;;;;;5018477;28;20061;-54
2024/03/19 11:45:47;;;;;;;7.40;1.48;;;17.50;94.60;;;;;;5019287;28;20038;-53
2024/03/19 11:48:24;;;;;;;5.00;1.60;;;17.60;94.70;;;;;;5027180;28;20124;-52
2024/03/19 11:50:56;;;;;;;4.90;1.67;;;17.60;95.70;;;;;;5022711;28;20487;-54
2024/03/19 11:53:26;;;;;;;5.97;1.27;;;17.70;95.10;;;;;;5024716;28;20029;-52
2024/03/19 11:55:54;;;;;;;6.43;1.30;;;17.80;95.90;;;;;;5021643;28;20018;-53
2024/03/19 11:58:22;;;;;;;4.13;1.50;;;17.80;97.30;;;;;;5026406;28;20071;-54
2024/03/19 12:00:48;;;;;;;4.07;1.35;;;17.80;95.30;;;;;;5026970;28;20518;-55
2024/03/19 12:03:19;;;;;;;3.47;1.30;;;17.90;95.20;;;;;;5023442;28;20065;-55
2024/03/19 12:05:50;;;;;;;4.28;1.27;;;18.10;93.10;;;;;;5025151;28;20021;-49
2024/03/19 12:08:16;;;;;;;3.25;1.20;;;17.80;94.00;;;;;;5022414;28;20540;-55
2024/03/19 12:10:42;;;;;;;3.17;1.38;;;18.00;94.90;;;;;;5021540;28;20029;-53
2024/03/19 12:13:10;;;;;;;3.25;1.33;;;17.90;94.60;;;;;;5018580;28;20410;-53
2024/03/19 12:15:36;;;;;;;5.63;1.50;;;17.90;94.10;;;;;;5026510;28;20121;-55
2024/03/19 12:18:01;;;;;;;8.35;1.40;;;17.80;95.50;;;;;;5024445;28;20097;-53
2024/03/19 12:20:27;;;;;;;8.32;1.98;;;17.60;95.60;;;;;;5004991;28;20058;-54
2024/03/19 12:22:52;;;;;;;6.00;1.52;;;17.70;96.00;;;;;;5022231;28;20022;-55
2024/03/19 12:25:25;;;;;;;4.53;1.50;;;17.70;95.20;;;;;;5027319;28;20736;-53
2024/03/19 12:27:51;;;;;;;5.70;1.60;;;17.60;96.50;;;;;;5025721;28;20026;-52
2024/03/19 12:30:21;;;;;;;6.32;1.80;;;17.70;95.90;;;;;;5021292;28;20029;-55
2024/03/19 12:35:33;;;;;;;5.57;1.38;;;17.30;96.40;;;;;;5023375;28;20126;-55
2024/03/19 12:37:58;;;;;;;8.05;1.83;;;17.40;96.20;;;;;;5035481;28;20498;-55
2024/03/19 12:40:25;;;;;;;3.78;1.63;;;17.50;97.10;;;;;;5017261;28;20026;-54